Time;durP1;ratioP1;P1;durP2;ratioP2;P2;SDS_P1;SDS_P2;PMS_P1;PMS_P2;Temp;Humidity;BMP_temperature;BMP_pressure;BME280_temperature;BME280_humidity;BME280_pressure;Samples;Min_cycle;Max_cycle;Signal;HPM_P1;HPM_P2
2023/06/30 00:01:48;;;;;;;12.82;10.57;;;;;;;-141.84;68.90;21698.28;4868398;29;20569;-66
2023/06/30 00:04:19;;;;;;;12.10;10.60;;;;;;;-141.84;69.11;21659.66;4860254;29;20747;-64
2023/06/30 00:06:49;;;;;;;13.02;10.90;;;21.30;99.90;;;-141.84;69.29;21649.50;4882459;28;20242;-65
2023/06/30 00:09:19;;;;;;;12.13;10.82;;;21.30;99.90;;;-141.84;69.95;21623.06;4890819;28;20227;-64
2023/06/30 00:11:50;;;;;;;13.25;10.85;;;21.20;99.90;;;-141.84;70.30;21627.13;4904255;28;20197;-65
2023/06/30 00:14:18;;;;;;;14.90;11.57;;;21.10;99.90;;;-141.84;71.42;21574.25;4917238;28;20230;-65
2023/06/30 00:16:47;;;;;;;13.68;11.15;;;21.10;99.90;;;-141.84;71.71;21537.66;4894390;29;20270;-65
2023/06/30 00:19:15;;;;;;;13.65;11.40;;;21.00;99.90;;;-141.84;70.84;21578.31;4890099;29;20289;-66
2023/06/30 00:21:44;;;;;;;12.35;10.38;;;21.10;99.90;;;-141.84;71.78;21523.44;4898595;29;20262;-65
2023/06/30 00:24:13;;;;;;;13.10;11.70;;;21.00;99.90;;;-141.84;71.94;21574.25;4883067;29;20329;-65
2023/06/30 00:26:42;;;;;;;11.05;9.93;;;20.90;99.90;;;-141.84;72.78;21515.28;4890813;29;20640;-64
2023/06/30 00:29:13;;;;;;;12.40;10.80;;;20.90;99.90;;;-141.84;73.07;21462.44;4890026;29;20290;-65
2023/06/30 00:31:41;;;;;;;15.45;11.68;;;20.90;99.90;;;-141.84;73.79;21468.53;4890248;29;20310;-65
2023/06/30 00:34:09;;;;;;;12.55;10.65;;;20.80;99.90;;;-141.84;73.20;21476.66;4901093;29;20744;-66
2023/06/30 00:36:37;;;;;;;12.93;11.32;;;20.80;99.90;;;-141.84;73.00;21494.97;4905882;28;20292;-65
2023/06/30 00:39:07;;;;;;;14.75;11.80;;;20.80;99.90;;;-141.84;72.52;21494.97;4908886;28;20306;-65
2023/06/30 00:41:35;;;;;;;15.27;12.30;;;20.90;99.90;;;-141.84;73.30;21476.66;4908603;28;20226;-64
2023/06/30 00:44:04;;;;;;;14.07;11.77;;;;;;;-141.84;73.88;21468.53;4881815;29;20649;-66
2023/06/30 00:46:33;;;;;;;12.93;11.30;;;20.80;99.90;;;-141.84;73.68;21444.13;4882672;29;20302;-65
2023/06/30 00:49:01;;;;;;;14.45;12.95;;;20.70;99.90;;;-141.84;72.30;21482.75;4889871;29;20341;-65
2023/06/30 00:51:30;;;;;;;14.35;11.85;;;20.80;99.90;;;-141.84;73.09;21478.69;4890154;29;20234;-65
2023/06/30 00:53:58;;;;;;;13.68;11.88;;;20.80;99.90;;;-141.84;73.99;21431.94;4889936;29;20293;-65
2023/06/30 00:56:28;;;;;;;12.23;10.70;;;20.70;99.90;;;-141.84;74.53;21407.53;4883144;29;20298;-66
2023/06/30 00:58:57;;;;;;;14.45;12.18;;;20.70;99.90;;;-141.84;74.54;21387.19;4889891;28;20275;-67
2023/06/30 01:01:42;;;;;;;14.98;12.55;;;20.60;99.90;;;-141.84;73.99;21456.34;4889514;29;20267;-66
2023/06/30 01:04:18;;;;;;;13.43;12.05;;;20.70;99.90;;;-141.84;73.98;21442.09;4884598;29;20230;-67
2023/06/30 01:06:59;;;;;;;12.75;11.40;;;20.80;99.90;;;-141.84;74.60;21425.84;4890075;29;20328;-60
2023/06/30 01:09:34;;;;;;;15.38;12.40;;;20.70;99.90;;;-141.84;74.06;21460.41;4889553;28;20654;-60
2023/06/30 01:12:05;;;;;;;13.38;11.98;;;20.70;99.90;;;-141.84;73.35;21462.44;4897069;29;20730;-59
2023/06/30 01:14:35;;;;;;;14.98;13.05;;;;;;;-141.84;74.55;21395.34;4895601;28;20358;-60
2023/06/30 01:17:06;;;;;;;14.38;11.93;;;;;;;-141.84;74.36;21423.81;4889109;29;20269;-60
2023/06/30 01:19:44;;;;;;;15.23;12.10;;;20.70;99.90;;;-141.84;74.13;21431.94;4888980;29;20230;-60
2023/06/30 01:22:24;;;;;;;14.65;13.00;;;20.70;99.90;;;-141.84;73.89;21407.53;4899472;29;20245;-60
2023/06/30 01:24:57;;;;;;;14.88;12.70;;;;;;;-141.84;74.29;21405.50;4908249;29;20674;-60
2023/06/30 01:27:27;;;;;;;16.77;13.40;;;20.60;99.90;;;-141.84;74.54;21389.22;4908124;29;20262;-59
2023/06/30 01:29:57;;;;;;;14.18;12.68;;;20.60;99.90;;;-141.84;73.94;21383.13;4899359;28;20702;-60
2023/06/30 01:32:26;;;;;;;16.33;12.52;;;20.60;99.90;;;-141.84;71.57;21521.41;4882260;29;20294;-60
2023/06/30 01:34:54;;;;;;;15.48;12.95;;;20.70;99.90;;;-141.84;71.23;21442.09;4888398;29;20786;-59
2023/06/30 01:37:22;;;;;;;13.57;12.02;;;20.80;99.90;;;-141.84;71.57;21464.47;4889372;29;20923;-61
2023/06/30 01:39:50;;;;;;;14.85;12.60;;;20.80;99.90;;;-141.84;71.69;21452.25;4888912;29;20261;-60
2023/06/30 01:42:20;;;;;;;13.88;12.02;;;20.80;99.90;;;-141.84;71.22;21464.47;4887639;29;20240;-60
2023/06/30 01:44:51;;;;;;;13.55;11.95;;;20.80;99.90;;;-141.84;71.12;21464.47;4908297;28;20257;-59
2023/06/30 01:47:20;;;;;;;13.60;11.63;;;20.80;99.90;;;-141.84;72.11;21454.28;4907814;29;20313;-60
2023/06/30 01:49:48;;;;;;;15.68;12.07;;;20.70;99.90;;;-141.84;71.69;21448.19;4907608;29;20610;-59
2023/06/30 01:52:17;;;;;;;15.18;12.52;;;20.70;99.90;;;-141.84;71.38;21466.50;4900207;29;20380;-59
2023/06/30 01:54:45;;;;;;;14.02;11.98;;;20.80;99.90;;;-141.84;71.29;21466.50;4907579;29;20325;-59
2023/06/30 01:57:13;;;;;;;13.45;11.90;;;20.80;99.90;;;-141.84;71.64;21444.13;4907782;29;20316;-59
2023/06/30 01:59:41;;;;;;;12.98;11.65;;;20.70;99.90;;;-141.84;72.33;21417.69;4894512;29;20297;-58
2023/06/30 02:02:12;;;;;;;12.93;11.60;;;20.70;99.90;;;-141.84;72.39;21427.88;4888695;29;20269;-60
2023/06/30 02:04:40;;;;;;;15.63;12.23;;;20.70;99.90;;;-141.84;71.56;21486.81;4916610;28;20229;-65
2023/06/30 02:07:08;;;;;;;13.63;12.23;;;20.80;99.90;;;-141.84;72.01;21407.53;4926194;28;20320;-65
2023/06/30 02:09:36;;;;;;;14.13;12.15;;;20.80;99.90;;;-141.84;72.59;21468.53;4926833;28;20239;-65
2023/06/30 02:12:15;;;;;;;15.82;13.07;;;20.70;99.90;;;-141.84;72.22;21472.59;4911323;28;20251;-64
2023/06/30 02:14:43;;;;;;;15.20;12.75;;;20.70;99.90;;;-141.84;72.58;21431.94;4919762;28;20260;-66
2023/06/30 02:17:13;;;;;;;14.80;12.70;;;20.80;99.90;;;-141.84;72.20;21507.16;4907333;28;20257;-66
2023/06/30 02:19:42;;;;;;;12.70;11.40;;;20.70;99.90;;;-141.84;73.11;21425.84;4906680;28;20329;-66
2023/06/30 02:22:10;;;;;;;14.40;12.48;;;20.60;99.90;;;-141.84;73.41;21401.44;4910102;28;20249;-64
2023/06/30 02:24:38;;;;;;;16.67;12.68;;;20.70;99.90;;;-141.84;73.23;21401.44;4904699;29;20261;-65
2023/06/30 02:27:08;;;;;;;14.10;12.40;;;20.60;99.90;;;-141.84;73.54;21421.75;4895899;29;20310;-64
2023/06/30 02:29:36;;;;;;;14.18;11.98;;;20.60;99.90;;;-141.84;74.12;21360.78;4906578;29;20233;-66
2023/06/30 02:32:05;;;;;;;12.63;11.27;;;20.50;99.90;;;-141.84;74.97;21403.47;4889518;29;20230;-65
2023/06/30 02:34:35;;;;;;;14.52;12.27;;;20.50;99.90;;;-141.84;74.52;21342.47;4874087;29;20242;-65
2023/06/30 02:37:03;;;;;;;15.50;12.65;;;20.50;99.90;;;-141.84;74.59;21350.59;4881882;29;20270;-66
2023/06/30 02:39:32;;;;;;;12.93;11.63;;;20.40;99.90;;;-141.84;74.67;21352.63;4888000;29;20234;-65
2023/06/30 02:42:00;;;;;;;15.05;12.63;;;20.40;99.90;;;-141.84;74.55;21340.44;4892042;29;20202;-65
2023/06/30 02:44:28;;;;;;;14.88;12.48;;;20.40;99.90;;;-141.84;73.95;21375.00;4899970;29;20329;-66
2023/06/30 02:46:56;;;;;;;13.98;11.90;;;20.50;99.90;;;-141.84;73.99;21362.81;4906374;29;20325;-65
2023/06/30 02:49:24;;;;;;;13.23;11.32;;;20.50;99.90;;;-141.84;74.29;21342.47;4906966;29;20260;-65
2023/06/30 02:51:54;;;;;;;13.50;11.60;;;20.50;99.90;;;-141.84;74.43;21350.59;4906819;29;20242;-65
2023/06/30 02:54:22;;;;;;;12.57;10.93;;;20.50;99.90;;;-141.84;74.60;21322.13;4897700;28;20240;-64
2023/06/30 02:56:50;;;;;;;11.80;10.60;;;20.40;99.90;;;-141.84;74.63;21332.31;4887669;29;20302;-66
2023/06/30 02:59:18;;;;;;;12.02;10.15;;;20.40;99.90;;;-141.84;75.02;21342.47;4887954;28;20262;-65
2023/06/30 03:01:47;;;;;;;12.75;11.10;;;20.30;99.90;;;-141.84;75.17;21326.22;4887363;29;20302;-65
2023/06/30 03:04:15;;;;;;;12.02;10.65;;;20.30;99.90;;;-141.84;75.10;21316.03;4880010;29;20243;-66
2023/06/30 03:06:43;;;;;;;12.23;10.93;;;20.30;99.90;;;-141.84;72.96;21403.47;4887727;29;20235;-65
2023/06/30 03:09:13;;;;;;;10.95;9.82;;;20.40;99.90;;;-141.84;74.11;21326.22;4887778;29;20298;-65
2023/06/30 03:11:41;;;;;;;11.48;10.32;;;20.40;99.90;;;-141.84;74.65;21295.72;4892655;29;20305;-65
2023/06/30 03:14:09;;;;;;;11.52;9.93;;;20.40;99.90;;;-141.84;74.87;21324.19;4903878;28;20345;-65
2023/06/30 03:16:37;;;;;;;12.13;10.88;;;20.30;99.90;;;-141.84;74.71;21336.38;4883310;29;20813;-66
2023/06/30 03:19:05;;;;;;;12.23;10.50;;;20.40;99.90;;;-141.84;74.97;21320.09;4887679;29;20480;-66
2023/06/30 03:21:35;;;;;;;11.27;10.15;;;20.30;99.90;;;-141.84;73.94;21342.47;4896589;28;20480;-65
2023/06/30 03:24:03;;;;;;;11.13;10.02;;;20.40;99.90;;;-141.84;73.03;21352.63;4888123;29;20231;-65
2023/06/30 03:26:33;;;;;;;10.98;9.90;;;20.30;99.90;;;-141.84;73.34;21346.53;4880100;29;20427;-66
2023/06/30 03:29:02;;;;;;;11.43;10.05;;;;;;;-141.84;73.75;21342.47;4887364;29;20290;-65
2023/06/30 03:31:30;;;;;;;12.55;9.77;;;;;;;-141.84;74.38;21372.97;4887705;29;20317;-65
2023/06/30 03:33:59;;;;;;;10.93;9.82;;;;;;;-141.84;74.88;21326.22;4896518;29;20260;-64
2023/06/30 03:36:28;;;;;;;11.07;9.88;;;;;;;-141.84;74.64;21340.44;4894440;29;20282;-65
2023/06/30 03:38:56;;;;;;;10.35;9.32;;;;;;;-141.84;74.98;21309.94;4887850;29;20305;-65
2023/06/30 03:41:26;;;;;;;11.32;10.13;;;;;;;-141.84;75.17;21305.88;4891260;29;20761;-64
2023/06/30 03:43:56;;;;;;;10.60;9.50;;;;;;;-141.84;75.06;21301.81;4872688;29;20322;-65
2023/06/30 03:46:24;;;;;;;10.85;9.75;;;20.60;99.90;;;-141.84;74.71;21314.00;4864713;29;20243;-66
2023/06/30 03:48:53;;;;;;;11.93;10.68;;;20.50;99.90;;;-141.84;74.43;21318.06;4872543;29;20247;-65
2023/06/30 03:51:21;;;;;;;12.43;9.60;;;20.50;99.90;;;-141.84;74.44;21322.13;4878557;29;20234;-65
2023/06/30 03:53:49;;;;;;;12.00;10.10;;;20.50;99.90;;;-141.84;73.95;21352.63;4892177;29;20700;-64
2023/06/30 03:56:17;;;;;;;12.52;10.52;;;20.50;99.90;;;-141.84;73.81;21354.66;4884346;29;20258;-65
2023/06/30 03:58:46;;;;;;;13.18;10.30;;;20.50;99.90;;;-141.84;74.38;21334.34;4890823;29;20230;-64
2023/06/30 04:01:16;;;;;;;11.98;10.80;;;20.50;99.90;;;-141.84;74.35;21362.81;4890742;29;20265;-65
2023/06/30 04:03:44;;;;;;;11.00;9.90;;;20.50;99.90;;;-141.84;74.72;21366.88;4890475;29;20273;-65
2023/06/30 04:06:12;;;;;;;12.68;10.52;;;20.60;99.90;;;-141.84;74.39;21356.69;4887563;29;20703;-67
2023/06/30 04:08:41;;;;;;;11.23;10.02;;;20.70;99.90;;;-141.84;74.65;21346.53;4891046;29;20282;-65
2023/06/30 04:11:09;;;;;;;11.55;10.35;;;20.60;99.90;;;-141.84;74.33;21427.88;4891336;29;20270;-65
2023/06/30 04:13:37;;;;;;;13.05;11.45;;;20.60;99.90;;;-141.84;74.21;21358.75;4909266;29;20234;-65
2023/06/30 04:16:06;;;;;;;11.80;9.98;;;20.60;99.90;;;-141.84;74.34;21362.81;4891823;29;20314;-66
2023/06/30 04:18:35;;;;;;;11.57;10.38;;;20.70;99.90;;;-141.84;74.00;21377.03;4882586;29;20246;-65
2023/06/30 04:21:03;;;;;;;11.98;10.77;;;20.80;99.90;;;-141.84;74.54;21381.09;4895739;29;20309;-65
2023/06/30 04:23:32;;;;;;;11.55;10.23;;;20.80;99.90;;;-141.84;73.96;21417.69;4909913;28;20296;-66
2023/06/30 04:26:00;;;;;;;13.10;11.15;;;20.80;99.90;;;-141.84;74.10;21427.88;4909278;29;20234;-66
2023/06/30 04:28:29;;;;;;;12.45;11.15;;;20.80;99.90;;;-141.84;73.59;21407.53;4897187;29;20254;-66
2023/06/30 04:30:58;;;;;;;13.63;11.38;;;20.90;99.90;;;-141.84;73.80;21436.00;4889903;29;20278;-65
2023/06/30 04:33:26;;;;;;;12.18;10.88;;;20.90;99.90;;;-141.84;73.76;21436.00;4890211;29;20234;-65
2023/06/30 04:35:56;;;;;;;13.95;12.40;;;21.00;99.90;;;-141.84;73.48;21444.13;4890644;29;20214;-66
2023/06/30 04:38:24;;;;;;;11.88;10.68;;;21.10;99.90;;;-141.84;74.00;21458.38;4883298;29;20211;-65
2023/06/30 04:40:52;;;;;;;12.68;10.85;;;21.10;99.90;;;-141.84;73.64;21482.75;4890273;29;20252;-66
2023/06/30 04:43:20;;;;;;;13.07;11.27;;;21.10;99.90;;;-141.84;73.25;21497.00;4904750;28;20241;-65
2023/06/30 04:45:49;;;;;;;12.73;10.50;;;21.20;99.90;;;-141.84;73.07;21503.09;4908464;28;20320;-65
2023/06/30 04:48:17;;;;;;;13.63;11.02;;;21.20;99.90;;;-141.84;72.71;21529.53;4901317;28;20230;-66
2023/06/30 04:50:45;;;;;;;13.45;11.75;;;21.30;99.90;;;-141.84;72.70;21517.31;4906518;29;20526;-65
2023/06/30 04:53:15;;;;;;;13.23;11.82;;;21.30;99.90;;;-141.84;72.38;21547.81;4889364;29;20247;-65
2023/06/30 04:55:43;;;;;;;14.43;12.02;;;21.40;99.90;;;-141.84;72.46;21545.78;4890146;29;20299;-65
2023/06/30 04:58:12;;;;;;;13.45;11.55;;;21.40;99.90;;;-141.84;72.59;21553.94;4886779;29;20238;-64
2023/06/30 05:00:42;;;;;;;12.70;11.38;;;21.50;99.90;;;-141.84;72.02;21560.03;4890255;29;20327;-65
2023/06/30 05:03:11;;;;;;;12.55;10.57;;;21.50;99.90;;;-141.84;71.93;21600.69;4889640;29;20266;-65
2023/06/30 05:05:39;;;;;;;14.63;11.68;;;21.60;99.90;;;-141.84;68.83;21649.50;4890260;29;20227;-65
2023/06/30 05:08:07;;;;;;;11.55;10.35;;;21.70;99.90;;;-141.84;69.69;21649.50;4889449;29;20321;-65
2023/06/30 05:10:37;;;;;;;13.50;10.93;;;21.70;99.90;;;-141.84;68.47;21694.22;4881884;29;20362;-65
2023/06/30 05:13:05;;;;;;;12.95;11.02;;;21.80;99.90;;;-141.84;67.87;21755.22;4905507;29;20237;-65
2023/06/30 05:15:33;;;;;;;13.43;10.93;;;21.90;99.90;;;-141.84;67.38;21741.00;4899917;29;20311;-64
2023/06/30 05:18:02;;;;;;;15.35;11.85;;;21.90;99.90;;;-141.84;67.73;21751.16;4907878;28;20210;-65
2023/06/30 05:20:32;;;;;;;12.23;10.75;;;21.90;99.90;;;-141.84;68.41;21751.16;4901770;28;20210;-65
2023/06/30 05:23:00;;;;;;;16.25;11.52;;;21.90;99.90;;;-141.84;68.02;21761.31;4910767;29;20242;-67
2023/06/30 05:25:28;;;;;;;16.50;12.45;;;22.00;99.90;;;-141.84;67.03;21789.78;4897591;29;20274;-66
2023/06/30 05:27:58;;;;;;;17.70;12.55;;;22.00;99.90;;;-141.84;66.89;21846.72;4888770;29;20234;-65
2023/06/30 05:30:26;;;;;;;13.52;11.10;;;22.00;99.90;;;-141.84;67.57;21799.97;4881297;29;20317;-66
2023/06/30 05:32:54;;;;;;;15.32;12.43;;;22.20;99.90;;;-141.84;67.27;21828.44;4888944;29;20275;-65
2023/06/30 05:35:22;;;;;;;15.25;11.75;;;22.30;99.90;;;-141.84;66.64;21883.31;4889411;29;20289;-66
2023/06/30 05:37:50;;;;;;;17.02;12.70;;;22.30;99.90;;;-141.84;66.30;21889.44;4889506;29;20317;-65
2023/06/30 05:40:19;;;;;;;14.32;12.00;;;22.40;99.90;;;-141.84;66.51;21846.72;4882324;29;20617;-66
2023/06/30 05:42:47;;;;;;;14.90;13.30;;;22.40;99.90;;;-141.84;65.96;21875.19;4899227;29;20289;-66
2023/06/30 05:45:17;;;;;;;13.10;11.73;;;22.40;99.90;;;-141.84;66.50;21830.47;4907281;29;20238;-65
2023/06/30 05:47:45;;;;;;;16.60;12.75;;;22.40;99.90;;;-141.84;65.66;21911.78;4908107;29;20214;-66
2023/06/30 05:50:14;;;;;;;12.82;11.52;;;22.50;99.90;;;-141.84;65.64;21936.19;4899613;29;20301;-65
2023/06/30 05:52:42;;;;;;;12.63;11.23;;;22.50;99.90;;;-141.84;65.34;21950.44;4889949;29;20290;-65
2023/06/30 05:55:10;;;;;;;14.32;12.38;;;22.50;99.90;;;-141.84;65.21;21964.66;4889057;29;20226;-67
2023/06/30 05:57:38;;;;;;;15.45;12.18;;;22.60;99.90;;;-141.84;64.64;21980.94;4888497;29;20234;-66
2023/06/30 06:00:08;;;;;;;14.88;12.60;;;22.80;99.90;;;-141.84;63.45;22092.78;4888196;29;20211;-66
2023/06/30 06:02:38;;;;;;;17.05;13.13;;;22.90;99.90;;;-141.84;63.18;22109.03;4884079;29;20306;-66
2023/06/30 06:05:07;;;;;;;16.15;12.95;;;23.00;99.90;;;-141.84;62.79;22113.13;4888302;29;20241;-65
2023/06/30 06:07:36;;;;;;;17.42;13.38;;;23.10;99.90;;;-141.84;61.81;22188.34;4888546;29;20238;-65
2023/06/30 06:10:07;;;;;;;16.13;12.38;;;23.20;99.90;;;-141.84;62.30;22135.47;4888671;29;20774;-66
2023/06/30 06:12:35;;;;;;;14.52;12.60;;;23.20;99.90;;;-141.84;61.67;22172.09;4891117;28;20238;-67
2023/06/30 06:15:04;;;;;;;15.02;12.35;;;23.20;99.90;;;-141.84;61.50;22182.25;4897380;29;20242;-66
2023/06/30 06:17:32;;;;;;;17.95;12.73;;;23.30;99.90;;;-141.84;61.87;22161.91;4888600;29;20294;-66
2023/06/30 06:20:02;;;;;;;16.95;13.32;;;23.30;99.90;;;-141.84;60.43;22298.16;4888589;29;20246;-66
2023/06/30 06:22:30;;;;;;;15.50;12.82;;;23.40;99.90;;;-141.84;60.00;22259.53;4881133;29;20329;-66
2023/06/30 06:24:58;;;;;;;12.23;11.02;;;23.50;99.90;;;-141.84;60.77;22288.00;4888269;29;20235;-66
2023/06/30 06:27:28;;;;;;;14.63;12.95;;;23.60;99.90;;;-141.84;59.31;22308.34;4887938;29;20309;-65
2023/06/30 06:29:56;;;;;;;13.45;11.98;;;23.80;99.90;;;-141.84;58.68;22371.38;4888277;29;20218;-66
2023/06/30 06:32:25;;;;;;;15.18;12.88;;;23.90;99.90;;;-141.84;58.54;22458.84;4880995;29;20488;-66
2023/06/30 06:34:53;;;;;;;15.73;12.50;;;24.00;99.90;;;-141.84;57.00;22517.81;4869061;29;20279;-66
2023/06/30 06:37:22;;;;;;;14.65;12.77;;;24.10;99.90;;;-141.84;57.16;22525.94;4869612;29;20297;-69
2023/06/30 06:39:50;;;;;;;15.10;13.13;;;24.20;99.90;;;-141.84;57.76;22466.97;4868857;29;20231;-66
2023/06/30 06:42:19;;;;;;;13.00;11.63;;;24.00;99.90;;;-141.84;57.71;22440.53;4874980;28;20261;-65
2023/06/30 06:44:47;;;;;;;13.25;11.85;;;23.90;99.90;;;-141.84;58.58;22440.53;4907136;28;20266;-66
2023/06/30 06:48:13;;;;;;;13.73;11.93;;;24.00;99.90;;;-141.84;58.79;22503.56;4907091;28;20234;-65
2023/06/30 06:50:41;;;;;;;15.30;12.80;;;24.20;99.90;;;-141.84;57.61;22542.22;4914628;28;20685;-65
2023/06/30 06:53:11;;;;;;;15.43;13.65;;;24.30;99.90;;;-141.84;56.66;22674.41;4887244;29;20734;-66
2023/06/30 06:55:39;;;;;;;16.95;13.73;;;24.50;99.90;;;-141.84;57.39;22627.63;4887304;29;20592;-66
2023/06/30 06:58:07;;;;;;;15.55;13.93;;;24.60;99.90;;;-141.84;56.82;22656.13;4897839;29;20265;-67
2023/06/30 07:00:35;;;;;;;15.50;13.25;;;24.70;99.90;;;-141.84;56.92;22664.25;4899185;29;20308;-67
2023/06/30 07:03:04;;;;;;;13.65;12.23;;;24.70;99.90;;;-141.84;57.46;22586.97;4901713;29;20667;-67
2023/06/30 07:05:32;;;;;;;19.50;14.13;;;24.80;99.90;;;-141.84;58.15;22530.00;4887620;29;20285;-66
2023/06/30 07:08:00;;;;;;;18.90;14.45;;;24.70;99.90;;;-141.84;58.63;22521.88;4886965;29;20258;-66
2023/06/30 07:10:31;;;;;;;19.33;16.75;;;24.60;99.90;;;-141.84;57.79;22501.53;4879797;29;20717;-66
2023/06/30 07:12:59;;;;;;;19.90;14.40;;;24.40;99.90;;;-141.84;58.16;22491.38;4902938;29;20334;-66
2023/06/30 07:15:27;;;;;;;18.05;16.13;;;24.20;99.90;;;-141.84;56.98;22515.78;4892898;29;20262;-59
2023/06/30 07:17:56;;;;;;;18.17;16.08;;;24.30;99.90;;;-141.84;57.71;22460.88;4887565;29;20237;-60
2023/06/30 07:20:25;;;;;;;18.05;15.48;;;24.10;99.90;;;-141.84;58.88;22353.09;4879730;29;20707;-60
2023/06/30 07:22:56;;;;;;;16.08;14.32;;;24.00;99.90;;;-141.84;58.89;22436.47;4906621;29;20226;-61
2023/06/30 07:25:25;;;;;;;17.52;15.68;;;24.10;99.90;;;-141.84;58.15;22497.47;4906031;29;20684;-60
2023/06/30 07:27:57;;;;;;;20.10;16.17;;;24.20;99.90;;;-141.84;57.80;22412.06;4906688;29;20289;-60
2023/06/30 07:30:27;;;;;;;18.63;15.73;;;24.20;99.90;;;-141.84;58.41;22446.63;4886841;29;20257;-59
2023/06/30 07:32:56;;;;;;;18.40;15.63;;;24.10;99.90;;;-141.84;58.63;22460.88;4887482;29;20223;-60
2023/06/30 07:35:25;;;;;;;16.13;14.43;;;24.00;99.90;;;-141.84;58.49;22460.88;4887973;29;20206;-59
2023/06/30 07:37:53;;;;;;;15.75;13.70;;;24.00;99.90;;;-141.84;57.43;22554.41;4887552;29;20270;-61
2023/06/30 07:40:21;;;;;;;17.35;13.63;;;24.20;99.90;;;-141.84;56.25;22627.63;4879140;29;20285;-60
2023/06/30 07:42:53;;;;;;;16.33;14.32;;;24.40;99.90;;;-141.84;56.04;22605.25;4897924;29;20269;-59
2023/06/30 07:45:23;;;;;;;16.17;13.48;;;24.60;99.90;;;-141.84;56.86;22556.47;4893601;29;20326;-61
2023/06/30 07:47:52;;;;;;;15.10;13.35;;;24.50;99.90;;;-141.84;57.51;22509.69;4877723;29;20250;-61
2023/06/30 07:50:20;;;;;;;16.02;13.38;;;24.50;99.90;;;-141.84;56.98;22532.06;4867406;29;20309;-63
2023/06/30 07:52:50;;;;;;;14.40;12.95;;;24.50;99.90;;;-141.84;57.30;22576.78;4881916;29;20325;-60
2023/06/30 07:55:19;;;;;;;15.90;14.20;;;24.60;99.90;;;-141.84;56.34;22684.59;4887150;29;20242;-63
2023/06/30 07:57:49;;;;;;;19.17;14.60;;;24.70;99.90;;;-141.84;54.63;22806.63;4886785;29;20313;-61
2023/06/30 08:00:18;;;;;;;16.98;14.18;;;25.00;99.90;;;-141.84;53.65;22894.06;4880613;29;20234;-63
2023/06/30 08:02:48;;;;;;;15.68;12.77;;;25.40;99.90;;;-141.84;53.67;23020.19;4886937;29;20243;-61
2023/06/30 08:05:17;;;;;;;14.63;13.15;;;25.60;99.90;;;-141.84;52.76;23128.00;4905732;29;20320;-65
2023/06/30 08:07:46;;;;;;;19.95;14.63;;;25.90;99.90;;;-141.84;52.39;23095.44;4906011;29;20309;-69
2023/06/30 08:10:18;;;;;;;17.30;14.60;;;25.80;99.90;;;-141.84;52.27;23075.09;4898441;29;20233;-67
2023/06/30 08:12:47;;;;;;;15.27;13.68;;;25.70;99.90;;;-141.84;51.95;23052.72;4912635;28;20233;-69
2023/06/30 08:15:15;;;;;;;15.15;13.55;;;25.90;99.90;;;-141.84;52.79;22906.28;4887257;29;20265;-72
2023/06/30 08:17:44;;;;;;;13.73;12.35;;;25.70;99.90;;;-141.84;51.96;22892.03;4887213;28;20207;-70
2023/06/30 08:20:24;;;;;;;13.75;12.18;;;25.60;99.90;;;-141.84;52.83;22946.97;4898053;28;20245;-70
2023/06/30 08:22:53;;;;;;;16.02;13.95;;;25.60;99.90;;;-141.84;53.04;22896.13;4890069;29;20476;-67
2023/06/30 08:25:24;;;;;;;16.25;12.55;;;25.50;99.90;;;-141.84;53.58;22930.69;4897805;29;20597;-66
2023/06/30 08:27:53;;;;;;;14.43;12.93;;;25.60;99.90;;;-141.84;52.73;22924.59;4908623;29;20286;-67
2023/06/30 08:30:21;;;;;;;16.30;13.38;;;25.40;99.90;;;-141.84;52.50;22894.06;4890318;29;20317;-69
2023/06/30 08:32:54;;;;;;;16.73;13.95;;;25.40;99.90;;;-141.84;52.43;22973.41;4890754;29;20293;-66
2023/06/30 08:35:25;;;;;;;15.98;13.73;;;25.40;99.90;;;-141.84;53.06;22883.91;4890583;29;20219;-67
2023/06/30 08:37:53;;;;;;;15.02;13.15;;;25.40;99.90;;;-141.84;52.93;22857.47;4889923;29;20266;-68
2023/06/30 08:40:29;;;;;;;17.30;14.27;;;25.40;99.90;;;-141.84;52.35;22904.25;4882174;29;20248;-69
2023/06/30 08:43:02;;;;;;;14.70;13.07;;;25.50;99.90;;;-141.84;53.71;22826.97;4898656;29;20241;-70
2023/06/30 08:45:31;;;;;;;15.25;13.65;;;25.40;99.90;;;-141.84;54.05;22887.97;4904094;29;20314;-71
2023/06/30 08:48:05;;;;;;;17.17;14.30;;;25.40;99.90;;;-141.84;52.50;22983.56;4890705;29;20226;-69
2023/06/30 08:50:36;;;;;;;16.75;14.95;;;25.60;99.90;;;-141.84;52.17;22993.75;4901547;28;20217;-69
2023/06/30 08:53:05;;;;;;;15.77;13.30;;;25.60;99.90;;;-141.84;52.19;23046.63;4889630;29;20242;-71
2023/06/30 08:55:34;;;;;;;17.95;14.68;;;25.80;99.90;;;-141.84;49.88;23264.28;4889871;29;20314;-72
2023/06/30 08:58:05;;;;;;;18.65;15.40;;;26.20;99.90;;;-141.84;50.04;23221.56;4891266;29;20269;-72
2023/06/30 09:00:48;;;;;;;17.42;15.45;;;26.30;99.90;;;-141.84;50.73;23160.53;4890382;29;20242;-68
2023/06/30 09:03:16;;;;;;;18.27;15.95;;;26.20;99.90;;;-141.84;50.67;23148.34;4889226;29;20314;-71
2023/06/30 09:05:48;;;;;;;18.60;16.70;;;26.30;99.90;;;-141.84;51.90;23062.91;4889396;29;20211;-72
2023/06/30 09:08:23;;;;;;;20.73;16.70;;;26.00;99.90;;;-141.84;52.19;23034.44;4882408;29;20870;-67
2023/06/30 09:10:54;;;;;;;19.30;17.02;;;26.10;99.90;;;-141.84;49.81;23245.97;4895027;28;20237;-66
2023/06/30 09:13:25;;;;;;;18.23;16.15;;;26.20;99.90;;;-141.84;49.83;23160.53;4893295;28;20591;-67
2023/06/30 09:15:58;;;;;;;18.75;15.70;;;26.20;99.90;;;-141.84;50.37;23170.72;4889371;29;20327;-66
2023/06/30 09:18:27;;;;;;;18.00;15.77;;;26.10;99.90;;;-141.84;50.71;23174.78;4882312;29;20226;-69
2023/06/30 09:20:57;;;;;;;18.73;16.58;;;26.20;99.90;;;-141.84;49.57;23268.34;4888417;29;20321;-67
2023/06/30 09:23:27;;;;;;;19.67;16.60;;;26.10;99.90;;;-141.84;48.74;23361.91;4890415;29;20310;-68
2023/06/30 09:25:55;;;;;;;16.65;14.45;;;26.50;99.90;;;-141.84;49.74;23298.84;4888967;29;20239;-66
2023/06/30 09:28:23;;;;;;;19.88;15.52;;;26.50;99.90;;;-141.84;49.81;23229.69;4881893;29;20253;-67
2023/06/30 09:30:51;;;;;;;19.17;17.13;;;26.40;99.90;;;-141.84;49.66;23170.72;4896685;28;20755;-68
2023/06/30 09:33:20;;;;;;;19.25;16.20;;;26.40;99.90;;;-141.84;50.59;23075.09;4903912;28;20314;-67
2023/06/30 09:35:50;;;;;;;20.45;17.17;;;26.00;99.90;;;-141.84;50.88;22991.72;4889458;29;20203;-66
2023/06/30 09:38:21;;;;;;;19.48;16.08;;;25.80;99.90;;;-141.84;51.57;22892.03;4900405;29;20256;-68
2023/06/30 09:40:51;;;;;;;19.48;16.45;;;25.70;99.90;;;-141.84;51.99;22833.06;4907573;29;20234;-66
2023/06/30 09:43:22;;;;;;;20.13;16.77;;;25.60;99.90;;;-141.84;52.92;22780.19;4921813;28;20320;-64
2023/06/30 09:45:56;;;;;;;18.98;16.92;;;25.40;99.90;;;-141.84;53.34;22647.97;4907315;28;20238;-68
2023/06/30 09:48:30;;;;;;;19.33;17.23;;;25.10;99.90;;;-141.84;53.76;22599.16;4900023;29;20527;-68
2023/06/30 09:50:59;;;;;;;19.75;16.67;;;24.70;99.90;;;-141.84;54.77;22515.78;4907089;29;20256;-68
2023/06/30 09:53:36;;;;;;;19.92;17.25;;;24.60;99.90;;;-141.84;56.44;22422.22;4908027;28;20217;-69
2023/06/30 09:56:05;;;;;;;20.80;18.13;;;24.40;99.90;;;-141.84;58.61;22379.53;4907334;29;20229;-69
2023/06/30 09:58:35;;;;;;;21.70;17.08;;;24.10;99.90;;;-141.84;61.32;22198.53;4899135;28;20285;-71
2023/06/30 10:01:04;;;;;;;20.30;17.13;;;23.90;99.90;;;-141.84;65.13;22080.56;4907632;28;20240;-68
2023/06/30 10:03:32;;;;;;;26.63;18.60;;;23.50;99.90;;;-141.84;65.74;22007.38;4902688;28;20318;-66
2023/06/30 10:06:01;;;;;;;21.95;18.67;;;23.30;99.90;;;-141.84;67.19;21905.69;4888708;29;20311;-68
2023/06/30 10:08:32;;;;;;;21.75;18.55;;;23.00;99.90;;;-141.84;69.67;21822.31;4880925;29;20297;-70